sensor_id;sensor_type;location;lat;lon;timestamp;temperature;humidity
58517;DHT22;44308;50.810;0.284;2023-05-10T00:01:46;13.50;99.90
58517;DHT22;44308;50.810;0.284;2023-05-10T00:04:12;13.50;99.90
58517;DHT22;44308;50.810;0.284;2023-05-10T00:06:37;13.50;99.90
58517;DHT22;44308;50.810;0.284;2023-05-10T00:09:03;13.50;99.90
58517;DHT22;44308;50.810;0.284;2023-05-10T00:11:29;13.50;99.90
58517;DHT22;44308;50.810;0.284;2023-05-10T00:13:55;13.40;99.90
58517;DHT22;44308;50.810;0.284;2023-05-10T00:16:21;13.40;99.90
58517;DHT22;44308;50.810;0.284;2023-05-10T00:18:46;13.40;99.90
58517;DHT22;44308;50.810;0.284;2023-05-10T00:21:12;13.30;99.90
58517;DHT22;44308;50.810;0.284;2023-05-10T00:23:38;13.30;99.90
58517;DHT22;44308;50.810;0.284;2023-05-10T00:26:03;13.30;99.90
58517;DHT22;44308;50.810;0.284;2023-05-10T00:28:29;13.30;99.90
58517;DHT22;44308;50.810;0.284;2023-05-10T00:30:55;13.30;99.90
58517;DHT22;44308;50.810;0.284;2023-05-10T00:33:21;13.30;99.90
58517;DHT22;44308;50.810;0.284;2023-05-10T00:35:46;13.20;99.90
58517;DHT22;44308;50.810;0.284;2023-05-10T00:38:12;13.20;99.90
58517;DHT22;44308;50.810;0.284;2023-05-10T00:40:38;13.20;99.90
58517;DHT22;44308;50.810;0.284;2023-05-10T00:43:04;13.20;99.90
58517;DHT22;44308;50.810;0.284;2023-05-10T00:45:32;13.20;99.90
58517;DHT22;44308;50.810;0.284;2023-05-10T00:48:00;13.20;99.90
58517;DHT22;44308;50.810;0.284;2023-05-10T00:50:26;13.10;99.90
58517;DHT22;44308;50.810;0.284;2023-05-10T00:52:52;13.20;99.90
58517;DHT22;44308;50.810;0.284;2023-05-10T00:55:18;13.20;99.90
58517;DHT22;44308;50.810;0.284;2023-05-10T00:57:44;13.20;99.90
58517;DHT22;44308;50.810;0.284;2023-05-10T01:00:10;13.10;99.90
58517;DHT22;44308;50.810;0.284;2023-05-10T01:02:36;13.20;99.90
58517;DHT22;44308;50.810;0.284;2023-05-10T01:05:03;13.20;99.90
58517;DHT22;44308;50.810;0.284;2023-05-10T01:07:31;13.20;99.90
58517;DHT22;44308;50.810;0.284;2023-05-10T01:09:57;13.10;99.90
58517;DHT22;44308;50.810;0.284;2023-05-10T01:12:23;13.10;99.90
58517;DHT22;44308;50.810;0.284;2023-05-10T01:14:49;13.10;99.90
58517;DHT22;44308;50.810;0.284;2023-05-10T01:17:15;13.10;99.90
58517;DHT22;44308;50.810;0.284;2023-05-10T01:19:41;13.10;99.90
58517;DHT22;44308;50.810;0.284;2023-05-10T01:31:26;13.10;99.90
58517;DHT22;44308;50.810;0.284;2023-05-10T01:33:52;13.10;99.90
58517;DHT22;44308;50.810;0.284;2023-05-10T01:36:35;13.10;99.90
58517;DHT22;44308;50.810;0.284;2023-05-10T01:39:28;13.10;99.90
58517;DHT22;44308;50.810;0.284;2023-05-10T01:42:09;13.00;99.90
58517;DHT22;44308;50.810;0.284;2023-05-10T01:44:58;13.00;99.90
58517;DHT22;44308;50.810;0.284;2023-05-10T01:47:40;13.00;99.90
58517;DHT22;44308;50.810;0.284;2023-05-10T01:50:10;13.00;99.90
58517;DHT22;44308;50.810;0.284;2023-05-10T01:52:41;13.00;99.90
58517;DHT22;44308;50.810;0.284;2023-05-10T01:55:13;13.00;99.90
58517;DHT22;44308;50.810;0.284;2023-05-10T01:57:40;13.00;99.90
58517;DHT22;44308;50.810;0.284;2023-05-10T02:00:08;13.00;99.90
58517;DHT22;44308;50.810;0.284;2023-05-10T02:02:39;13.00;99.90
58517;DHT22;44308;50.810;0.284;2023-05-10T02:05:08;13.00;99.90
58517;DHT22;44308;50.810;0.284;2023-05-10T02:07:37;13.00;99.90
58517;DHT22;44308;50.810;0.284;2023-05-10T02:10:05;13.00;99.90
58517;DHT22;44308;50.810;0.284;2023-05-10T02:12:36;13.00;99.90
58517;DHT22;44308;50.810;0.284;2023-05-10T02:15:03;13.00;99.90
58517;DHT22;44308;50.810;0.284;2023-05-10T02:17:32;13.10;99.90
58517;DHT22;44308;50.810;0.284;2023-05-10T02:19:59;13.10;99.90
58517;DHT22;44308;50.810;0.284;2023-05-10T02:22:27;13.00;99.90
58517;DHT22;44308;50.810;0.284;2023-05-10T02:24:54;13.00;99.90
58517;DHT22;44308;50.810;0.284;2023-05-10T02:27:22;13.00;99.90
58517;DHT22;44308;50.810;0.284;2023-05-10T02:29:50;13.00;99.90
58517;DHT22;44308;50.810;0.284;2023-05-10T02:32:17;13.00;99.90
58517;DHT22;44308;50.810;0.284;2023-05-10T02:34:44;13.10;99.90
58517;DHT22;44308;50.810;0.284;2023-05-10T02:37:13;13.00;99.90
58517;DHT22;44308;50.810;0.284;2023-05-10T02:39:40;13.00;99.90
58517;DHT22;44308;50.810;0.284;2023-05-10T02:42:12;13.00;99.90
58517;DHT22;44308;50.810;0.284;2023-05-10T02:44:41;13.00;99.90
58517;DHT22;44308;50.810;0.284;2023-05-10T02:47:07;13.00;99.90
58517;DHT22;44308;50.810;0.284;2023-05-10T02:49:33;13.00;99.90
58517;DHT22;44308;50.810;0.284;2023-05-10T02:52:01;13.00;99.90
58517;DHT22;44308;50.810;0.284;2023-05-10T02:54:31;13.00;99.90
58517;DHT22;44308;50.810;0.284;2023-05-10T02:56:58;13.00;99.90
58517;DHT22;44308;50.810;0.284;2023-05-10T02:59:27;13.00;99.90
58517;DHT22;44308;50.810;0.284;2023-05-10T03:01:53;13.00;99.90
58517;DHT22;44308;50.810;0.284;2023-05-10T03:04:19;13.00;99.90
58517;DHT22;44308;50.810;0.284;2023-05-10T03:06:45;13.00;99.90
58517;DHT22;44308;50.810;0.284;2023-05-10T03:09:11;13.00;99.90
58517;DHT22;44308;50.810;0.284;2023-05-10T03:17:25;13.00;99.90
58517;DHT22;44308;50.810;0.284;2023-05-10T03:22:45;13.00;99.90
58517;DHT22;44308;50.810;0.284;2023-05-10T03:25:12;13.00;99.90
58517;DHT22;44308;50.810;0.284;2023-05-10T03:27:41;13.00;99.90
58517;DHT22;44308;50.810;0.284;2023-05-10T03:30:09;13.00;99.90
58517;DHT22;44308;50.810;0.284;2023-05-10T03:32:35;13.00;99.90
58517;DHT22;44308;50.810;0.284;2023-05-10T03:35:07;13.00;99.90
58517;DHT22;44308;50.810;0.284;2023-05-10T03:37:32;13.00;99.90
58517;DHT22;44308;50.810;0.284;2023-05-10T03:39:58;13.00;99.90
58517;DHT22;44308;50.810;0.284;2023-05-10T03:42:24;13.00;99.90
58517;DHT22;44308;50.810;0.284;2023-05-10T03:44:49;13.00;99.90
58517;DHT22;44308;50.810;0.284;2023-05-10T03:47:15;13.00;99.90
58517;DHT22;44308;50.810;0.284;2023-05-10T03:49:41;13.00;99.90
58517;DHT22;44308;50.810;0.284;2023-05-10T03:52:06;13.10;99.90
58517;DHT22;44308;50.810;0.284;2023-05-10T03:54:32;13.10;99.90
58517;DHT22;44308;50.810;0.284;2023-05-10T03:56:58;13.10;99.90
58517;DHT22;44308;50.810;0.284;2023-05-10T03:59:23;13.10;99.90
58517;DHT22;44308;50.810;0.284;2023-05-10T04:01:49;13.10;99.90
58517;DHT22;44308;50.810;0.284;2023-05-10T04:04:15;13.10;99.90
58517;DHT22;44308;50.810;0.284;2023-05-10T04:06:41;13.10;99.90
58517;DHT22;44308;50.810;0.284;2023-05-10T04:09:09;13.10;99.90
58517;DHT22;44308;50.810;0.284;2023-05-10T04:11:35;13.10;99.90
58517;DHT22;44308;50.810;0.284;2023-05-10T04:14:00;13.10;99.90
58517;DHT22;44308;50.810;0.284;2023-05-10T04:16:26;13.10;99.90
58517;DHT22;44308;50.810;0.284;2023-05-10T04:18:51;13.20;99.90
58517;DHT22;44308;50.810;0.284;2023-05-10T04:21:17;13.20;99.90
58517;DHT22;44308;50.810;0.284;2023-05-10T04:23:43;13.20;99.90
58517;DHT22;44308;50.810;0.284;2023-05-10T04:26:08;13.10;99.90
58517;DHT22;44308;50.810;0.284;2023-05-10T04:28:34;13.20;99.90
58517;DHT22;44308;50.810;0.284;2023-05-10T04:31:08;13.10;99.90
58517;DHT22;44308;50.810;0.284;2023-05-10T04:33:34;13.20;99.90
58517;DHT22;44308;50.810;0.284;2023-05-10T04:36:01;13.20;99.90
58517;DHT22;44308;50.810;0.284;2023-05-10T04:38:27;13.20;99.90
58517;DHT22;44308;50.810;0.284;2023-05-10T04:40:53;13.10;99.90
58517;DHT22;44308;50.810;0.284;2023-05-10T04:43:19;13.20;99.90
58517;DHT22;44308;50.810;0.284;2023-05-10T04:45:44;13.20;99.90
58517;DHT22;44308;50.810;0.284;2023-05-10T04:48:10;13.20;99.90
58517;DHT22;44308;50.810;0.284;2023-05-10T04:50:36;13.20;99.90
58517;DHT22;44308;50.810;0.284;2023-05-10T04:53:02;13.20;99.90
58517;DHT22;44308;50.810;0.284;2023-05-10T04:55:28;13.20;99.90
58517;DHT22;44308;50.810;0.284;2023-05-10T04:57:53;13.20;99.90
58517;DHT22;44308;50.810;0.284;2023-05-10T05:00:22;13.20;99.90
58517;DHT22;44308;50.810;0.284;2023-05-10T05:02:48;13.20;99.90
58517;DHT22;44308;50.810;0.284;2023-05-10T05:05:14;13.20;99.90
58517;DHT22;44308;50.810;0.284;2023-05-10T05:07:39;13.30;99.90
58517;DHT22;44308;50.810;0.284;2023-05-10T05:10:06;13.30;99.90
58517;DHT22;44308;50.810;0.284;2023-05-10T05:12:33;13.30;99.90
58517;DHT22;44308;50.810;0.284;2023-05-10T05:14:58;13.30;99.90
58517;DHT22;44308;50.810;0.284;2023-05-10T05:17:24;13.30;99.90
58517;DHT22;44308;50.810;0.284;2023-05-10T05:19:50;13.30;99.90
58517;DHT22;44308;50.810;0.284;2023-05-10T05:22:15;13.30;99.90
58517;DHT22;44308;50.810;0.284;2023-05-10T05:24:41;13.30;99.90
58517;DHT22;44308;50.810;0.284;2023-05-10T05:27:07;13.30;99.90
58517;DHT22;44308;50.810;0.284;2023-05-10T05:29:33;13.30;99.90
58517;DHT22;44308;50.810;0.284;2023-05-10T05:31:58;13.30;99.90
58517;DHT22;44308;50.810;0.284;2023-05-10T05:34:24;13.30;99.90
58517;DHT22;44308;50.810;0.284;2023-05-10T05:36:50;13.30;99.90
58517;DHT22;44308;50.810;0.284;2023-05-10T05:39:16;13.30;99.90
58517;DHT22;44308;50.810;0.284;2023-05-10T05:41:42;13.30;99.90
58517;DHT22;44308;50.810;0.284;2023-05-10T05:44:08;13.30;99.90
58517;DHT22;44308;50.810;0.284;2023-05-10T05:46:33;13.40;99.90
58517;DHT22;44308;50.810;0.284;2023-05-10T05:49:00;13.30;99.90
58517;DHT22;44308;50.810;0.284;2023-05-10T05:51:25;13.40;99.90
58517;DHT22;44308;50.810;0.284;2023-05-10T05:53:51;13.30;99.90
58517;DHT22;44308;50.810;0.284;2023-05-10T05:56:17;13.30;99.90
58517;DHT22;44308;50.810;0.284;2023-05-10T05:58:50;13.40;99.90
58517;DHT22;44308;50.810;0.284;2023-05-10T06:01:16;13.30;99.90
58517;DHT22;44308;50.810;0.284;2023-05-10T06:03:42;13.30;99.90
58517;DHT22;44308;50.810;0.284;2023-05-10T06:06:07;13.30;99.90
58517;DHT22;44308;50.810;0.284;2023-05-10T06:08:33;13.20;99.90
58517;DHT22;44308;50.810;0.284;2023-05-10T06:11:00;13.30;99.90
58517;DHT22;44308;50.810;0.284;2023-05-10T06:13:26;13.30;99.90
58517;DHT22;44308;50.810;0.284;2023-05-10T06:15:57;13.40;99.90
58517;DHT22;44308;50.810;0.284;2023-05-10T06:18:23;13.40;99.90
58517;DHT22;44308;50.810;0.284;2023-05-10T06:20:50;13.50;99.90
58517;DHT22;44308;50.810;0.284;2023-05-10T06:23:15;13.40;99.90
58517;DHT22;44308;50.810;0.284;2023-05-10T06:25:41;13.40;99.90
58517;DHT22;44308;50.810;0.284;2023-05-10T06:28:07;13.40;99.90
58517;DHT22;44308;50.810;0.284;2023-05-10T06:30:32;13.40;99.90
58517;DHT22;44308;50.810;0.284;2023-05-10T06:32:58;13.30;99.90
58517;DHT22;44308;50.810;0.284;2023-05-10T06:35:26;13.30;99.90
58517;DHT22;44308;50.810;0.284;2023-05-10T06:37:52;13.50;99.90
58517;DHT22;44308;50.810;0.284;2023-05-10T06:40:18;13.50;99.90
58517;DHT22;44308;50.810;0.284;2023-05-10T06:42:43;13.60;99.90
58517;DHT22;44308;50.810;0.284;2023-05-10T06:45:10;13.60;99.90
58517;DHT22;44308;50.810;0.284;2023-05-10T06:47:36;13.60;99.90
58517;DHT22;44308;50.810;0.284;2023-05-10T06:50:02;13.50;99.90
58517;DHT22;44308;50.810;0.284;2023-05-10T06:52:28;13.40;99.90
58517;DHT22;44308;50.810;0.284;2023-05-10T06:54:54;13.60;99.90
58517;DHT22;44308;50.810;0.284;2023-05-10T06:57:19;13.70;99.90
58517;DHT22;44308;50.810;0.284;2023-05-10T06:59:46;14.10;99.90
58517;DHT22;44308;50.810;0.284;2023-05-10T07:02:11;14.70;99.90
58517;DHT22;44308;50.810;0.284;2023-05-10T07:04:37;15.50;99.90
58517;DHT22;44308;50.810;0.284;2023-05-10T07:07:07;16.20;99.90
58517;DHT22;44308;50.810;0.284;2023-05-10T07:09:33;16.70;99.90
58517;DHT22;44308;50.810;0.284;2023-05-10T07:11:59;17.00;99.90
58517;DHT22;44308;50.810;0.284;2023-05-10T07:14:25;17.50;99.90
58517;DHT22;44308;50.810;0.284;2023-05-10T07:16:50;18.20;99.90
58517;DHT22;44308;50.810;0.284;2023-05-10T07:19:16;18.70;99.90
58517;DHT22;44308;50.810;0.284;2023-05-10T07:21:41;19.10;99.90
58517;DHT22;44308;50.810;0.284;2023-05-10T07:24:09;19.10;99.90
58517;DHT22;44308;50.810;0.284;2023-05-10T07:26:34;19.40;99.90
58517;DHT22;44308;50.810;0.284;2023-05-10T07:29:00;19.50;99.90
58517;DHT22;44308;50.810;0.284;2023-05-10T07:31:26;19.50;99.90
58517;DHT22;44308;50.810;0.284;2023-05-10T07:33:52;20.10;99.90
58517;DHT22;44308;50.810;0.284;2023-05-10T07:36:17;20.00;99.90
58517;DHT22;44308;50.810;0.284;2023-05-10T07:38:43;20.70;99.90
58517;DHT22;44308;50.810;0.284;2023-05-10T07:41:09;20.80;99.90
58517;DHT22;44308;50.810;0.284;2023-05-10T07:43:35;21.20;99.90
58517;DHT22;44308;50.810;0.284;2023-05-10T07:46:00;21.00;99.90
58517;DHT22;44308;50.810;0.284;2023-05-10T07:48:26;21.40;99.90
58517;DHT22;44308;50.810;0.284;2023-05-10T07:50:52;21.30;99.90
58517;DHT22;44308;50.810;0.284;2023-05-10T07:53:17;21.30;99.90
58517;DHT22;44308;50.810;0.284;2023-05-10T07:55:44;21.50;99.90
58517;DHT22;44308;50.810;0.284;2023-05-10T07:58:15;21.40;99.90
58517;DHT22;44308;50.810;0.284;2023-05-10T08:00:40;21.50;99.90
58517;DHT22;44308;50.810;0.284;2023-05-10T08:03:06;21.80;99.90
58517;DHT22;44308;50.810;0.284;2023-05-10T08:05:32;21.90;99.90
58517;DHT22;44308;50.810;0.284;2023-05-10T08:07:57;22.30;99.90
58517;DHT22;44308;50.810;0.284;2023-05-10T08:10:25;22.40;99.90
58517;DHT22;44308;50.810;0.284;2023-05-10T08:12:51;22.50;99.90
58517;DHT22;44308;50.810;0.284;2023-05-10T08:15:16;22.20;99.90
58517;DHT22;44308;50.810;0.284;2023-05-10T08:17:42;22.00;99.90
58517;DHT22;44308;50.810;0.284;2023-05-10T08:20:08;22.30;99.90
58517;DHT22;44308;50.810;0.284;2023-05-10T08:22:34;22.30;99.90
58517;DHT22;44308;50.810;0.284;2023-05-10T08:25:00;22.20;99.90
58517;DHT22;44308;50.810;0.284;2023-05-10T08:27:25;22.30;99.90
58517;DHT22;44308;50.810;0.284;2023-05-10T08:29:51;22.70;99.90
58517;DHT22;44308;50.810;0.284;2023-05-10T08:32:18;22.80;99.90
58517;DHT22;44308;50.810;0.284;2023-05-10T08:34:43;23.40;99.90
58517;DHT22;44308;50.810;0.284;2023-05-10T08:37:09;23.10;99.90
58517;DHT22;44308;50.810;0.284;2023-05-10T08:39:38;23.10;99.90
58517;DHT22;44308;50.810;0.284;2023-05-10T08:42:05;22.40;99.90
58517;DHT22;44308;50.810;0.284;2023-05-10T08:44:32;22.60;99.90
58517;DHT22;44308;50.810;0.284;2023-05-10T08:47:03;22.00;99.90
58517;DHT22;44308;50.810;0.284;2023-05-10T08:49:31;22.20;99.90
58517;DHT22;44308;50.810;0.284;2023-05-10T08:51:57;22.00;99.90
58517;DHT22;44308;50.810;0.284;2023-05-10T08:54:25;21.90;99.90
58517;DHT22;44308;50.810;0.284;2023-05-10T08:56:51;22.00;99.90
58517;DHT22;44308;50.810;0.284;2023-05-10T08:59:17;22.20;99.90
58517;DHT22;44308;50.810;0.284;2023-05-10T09:01:44;22.30;99.90
58517;DHT22;44308;50.810;0.284;2023-05-10T09:04:11;22.30;99.90
58517;DHT22;44308;50.810;0.284;2023-05-10T09:06:37;22.20;99.90
58517;DHT22;44308;50.810;0.284;2023-05-10T09:09:03;21.90;99.90
58517;DHT22;44308;50.810;0.284;2023-05-10T09:11:29;21.50;99.90
58517;DHT22;44308;50.810;0.284;2023-05-10T09:13:55;22.40;99.90
58517;DHT22;44308;50.810;0.284;2023-05-10T09:16:22;22.60;99.90
58517;DHT22;44308;50.810;0.284;2023-05-10T09:18:48;23.20;99.90
58517;DHT22;44308;50.810;0.284;2023-05-10T09:21:14;23.10;99.90
58517;DHT22;44308;50.810;0.284;2023-05-10T09:23:46;23.00;99.90
58517;DHT22;44308;50.810;0.284;2023-05-10T09:26:12;23.20;99.90
58517;DHT22;44308;50.810;0.284;2023-05-10T09:28:52;22.60;99.90
58517;DHT22;44308;50.810;0.284;2023-05-10T09:31:18;23.10;99.90
58517;DHT22;44308;50.810;0.284;2023-05-10T09:33:44;23.20;99.90
58517;DHT22;44308;50.810;0.284;2023-05-10T09:36:12;23.20;99.90
58517;DHT22;44308;50.810;0.284;2023-05-10T09:38:52;22.80;99.90
58517;DHT22;44308;50.810;0.284;2023-05-10T09:41:24;23.30;99.90
58517;DHT22;44308;50.810;0.284;2023-05-10T09:43:55;23.40;99.90
58517;DHT22;44308;50.810;0.284;2023-05-10T09:46:22;23.20;99.90
58517;DHT22;44308;50.810;0.284;2023-05-10T09:48:51;23.40;99.90
58517;DHT22;44308;50.810;0.284;2023-05-10T09:51:25;23.60;99.90
58517;DHT22;44308;50.810;0.284;2023-05-10T09:54:13;23.40;99.90
58517;DHT22;44308;50.810;0.284;2023-05-10T09:56:40;23.20;99.90
58517;DHT22;44308;50.810;0.284;2023-05-10T09:59:09;23.20;99.90
58517;DHT22;44308;50.810;0.284;2023-05-10T10:01:35;23.60;99.90
58517;DHT22;44308;50.810;0.284;2023-05-10T10:04:06;23.50;99.90
58517;DHT22;44308;50.810;0.284;2023-05-10T10:06:36;23.50;99.90
58517;DHT22;44308;50.810;0.284;2023-05-10T10:09:02;23.20;99.90
58517;DHT22;44308;50.810;0.284;2023-05-10T10:11:28;23.50;99.90
58517;DHT22;44308;50.810;0.284;2023-05-10T10:13:54;23.60;99.90
58517;DHT22;44308;50.810;0.284;2023-05-10T10:16:20;23.20;99.90
58517;DHT22;44308;50.810;0.284;2023-05-10T10:18:47;23.60;99.90
58517;DHT22;44308;50.810;0.284;2023-05-10T10:21:13;23.10;99.90
58517;DHT22;44308;50.810;0.284;2023-05-10T10:23:40;23.20;99.90
58517;DHT22;44308;50.810;0.284;2023-05-10T10:26:06;23.10;99.90
58517;DHT22;44308;50.810;0.284;2023-05-10T10:28:56;23.40;99.90
58517;DHT22;44308;50.810;0.284;2023-05-10T10:31:43;23.40;99.90
58517;DHT22;44308;50.810;0.284;2023-05-10T10:34:22;23.40;99.90
58517;DHT22;44308;50.810;0.284;2023-05-10T10:36:50;23.70;99.90
58517;DHT22;44308;50.810;0.284;2023-05-10T10:39:16;23.60;99.90
58517;DHT22;44308;50.810;0.284;2023-05-10T10:41:55;23.20;99.90
58517;DHT22;44308;50.810;0.284;2023-05-10T10:55:19;23.10;99.90
58517;DHT22;44308;50.810;0.284;2023-05-10T10:57:55;23.40;99.90
58517;DHT22;44308;50.810;0.284;2023-05-10T11:00:36;23.60;99.90
58517;DHT22;44308;50.810;0.284;2023-05-10T11:03:15;23.70;99.90
58517;DHT22;44308;50.810;0.284;2023-05-10T11:05:48;23.40;99.90
58517;DHT22;44308;50.810;0.284;2023-05-10T11:08:27;22.80;99.90
58517;DHT22;44308;50.810;0.284;2023-05-10T11:11:05;21.70;99.90
58517;DHT22;44308;50.810;0.284;2023-05-10T11:13:44;21.00;99.90
58517;DHT22;44308;50.810;0.284;2023-05-10T11:18:36;21.00;99.90
58517;DHT22;44308;50.810;0.284;2023-05-10T11:21:02;21.40;99.90
58517;DHT22;44308;50.810;0.284;2023-05-10T11:23:54;21.60;99.90
58517;DHT22;44308;50.810;0.284;2023-05-10T11:26:32;21.90;99.90
58517;DHT22;44308;50.810;0.284;2023-05-10T11:28:59;22.20;99.90
58517;DHT22;44308;50.810;0.284;2023-05-10T11:31:26;22.10;99.90
58517;DHT22;44308;50.810;0.284;2023-05-10T11:33:54;21.30;99.90
58517;DHT22;44308;50.810;0.284;2023-05-10T11:36:24;21.00;99.90
58517;DHT22;44308;50.810;0.284;2023-05-10T11:38:50;20.40;99.90
58517;DHT22;44308;50.810;0.284;2023-05-10T11:41:18;20.00;99.90
58517;DHT22;44308;50.810;0.284;2023-05-10T11:43:46;19.30;99.90
58517;DHT22;44308;50.810;0.284;2023-05-10T11:46:12;18.80;99.90
58517;DHT22;44308;50.810;0.284;2023-05-10T11:48:39;18.10;99.90
58517;DHT22;44308;50.810;0.284;2023-05-10T11:51:06;17.80;99.90
58517;DHT22;44308;50.810;0.284;2023-05-10T11:53:33;17.70;99.90
58517;DHT22;44308;50.810;0.284;2023-05-10T11:56:11;17.50;99.90
58517;DHT22;44308;50.810;0.284;2023-05-10T11:58:57;17.80;99.90
58517;DHT22;44308;50.810;0.284;2023-05-10T12:01:24;18.10;99.90
58517;DHT22;44308;50.810;0.284;2023-05-10T12:03:51;19.00;99.90
58517;DHT22;44308;50.810;0.284;2023-05-10T12:06:21;19.20;99.90
58517;DHT22;44308;50.810;0.284;2023-05-10T12:08:48;19.90;99.90
58517;DHT22;44308;50.810;0.284;2023-05-10T12:11:17;20.20;99.90
58517;DHT22;44308;50.810;0.284;2023-05-10T12:13:44;20.10;99.90
58517;DHT22;44308;50.810;0.284;2023-05-10T12:16:17;20.10;99.90
58517;DHT22;44308;50.810;0.284;2023-05-10T12:18:44;20.60;99.90
58517;DHT22;44308;50.810;0.284;2023-05-10T12:21:13;20.20;99.90
58517;DHT22;44308;50.810;0.284;2023-05-10T12:23:41;20.30;99.90
58517;DHT22;44308;50.810;0.284;2023-05-10T12:26:10;20.50;99.90
58517;DHT22;44308;50.810;0.284;2023-05-10T12:28:37;20.70;99.90
58517;DHT22;44308;50.810;0.284;2023-05-10T12:31:03;20.60;99.90
58517;DHT22;44308;50.810;0.284;2023-05-10T12:33:40;20.70;99.90
58517;DHT22;44308;50.810;0.284;2023-05-10T12:36:11;20.00;99.90
58517;DHT22;44308;50.810;0.284;2023-05-10T12:38:42;19.40;99.90
58517;DHT22;44308;50.810;0.284;2023-05-10T12:41:15;19.00;99.90
58517;DHT22;44308;50.810;0.284;2023-05-10T12:43:41;18.80;99.90
58517;DHT22;44308;50.810;0.284;2023-05-10T12:46:10;18.80;99.90
58517;DHT22;44308;50.810;0.284;2023-05-10T12:48:37;18.90;99.90
58517;DHT22;44308;50.810;0.284;2023-05-10T12:51:04;19.00;99.90
58517;DHT22;44308;50.810;0.284;2023-05-10T12:53:30;19.10;99.90
58517;DHT22;44308;50.810;0.284;2023-05-10T12:55:56;19.20;99.90
58517;DHT22;44308;50.810;0.284;2023-05-10T12:58:22;19.20;99.90
58517;DHT22;44308;50.810;0.284;2023-05-10T13:00:48;19.50;99.90
58517;DHT22;44308;50.810;0.284;2023-05-10T13:03:14;19.10;99.90
58517;DHT22;44308;50.810;0.284;2023-05-10T13:05:41;19.10;99.90
58517;DHT22;44308;50.810;0.284;2023-05-10T13:08:07;19.60;99.90
58517;DHT22;44308;50.810;0.284;2023-05-10T13:10:32;19.80;99.90
58517;DHT22;44308;50.810;0.284;2023-05-10T13:12:59;19.80;99.90
58517;DHT22;44308;50.810;0.284;2023-05-10T13:15:25;20.00;99.90
58517;DHT22;44308;50.810;0.284;2023-05-10T13:17:51;20.10;99.90
58517;DHT22;44308;50.810;0.284;2023-05-10T13:20:17;20.00;99.90
58517;DHT22;44308;50.810;0.284;2023-05-10T13:22:44;20.00;99.90
58517;DHT22;44308;50.810;0.284;2023-05-10T13:25:11;20.00;99.90
58517;DHT22;44308;50.810;0.284;2023-05-10T13:27:39;20.10;99.90
58517;DHT22;44308;50.810;0.284;2023-05-10T13:30:06;20.10;99.90
58517;DHT22;44308;50.810;0.284;2023-05-10T13:32:32;20.00;99.90
58517;DHT22;44308;50.810;0.284;2023-05-10T13:34:58;20.30;99.90
58517;DHT22;44308;50.810;0.284;2023-05-10T13:37:24;20.60;99.90
58517;DHT22;44308;50.810;0.284;2023-05-10T13:39:50;20.40;99.90
58517;DHT22;44308;50.810;0.284;2023-05-10T13:42:17;20.40;99.90
58517;DHT22;44308;50.810;0.284;2023-05-10T13:44:43;19.90;99.90
58517;DHT22;44308;50.810;0.284;2023-05-10T13:47:09;20.00;99.90
58517;DHT22;44308;50.810;0.284;2023-05-10T13:49:34;20.10;99.90
58517;DHT22;44308;50.810;0.284;2023-05-10T13:52:00;20.20;99.90
58517;DHT22;44308;50.810;0.284;2023-05-10T13:54:33;20.20;99.90
58517;DHT22;44308;50.810;0.284;2023-05-10T13:56:58;19.80;99.90
58517;DHT22;44308;50.810;0.284;2023-05-10T13:59:24;20.20;99.90
58517;DHT22;44308;50.810;0.284;2023-05-10T14:01:50;20.70;99.90
58517;DHT22;44308;50.810;0.284;2023-05-10T14:04:16;20.60;99.90
58517;DHT22;44308;50.810;0.284;2023-05-10T14:06:41;20.40;99.90
58517;DHT22;44308;50.810;0.284;2023-05-10T14:09:07;20.10;99.90
58517;DHT22;44308;50.810;0.284;2023-05-10T14:11:33;20.10;99.90
58517;DHT22;44308;50.810;0.284;2023-05-10T14:13:58;20.20;99.90
58517;DHT22;44308;50.810;0.284;2023-05-10T14:16:24;20.40;99.90
58517;DHT22;44308;50.810;0.284;2023-05-10T14:18:50;20.30;99.90
58517;DHT22;44308;50.810;0.284;2023-05-10T14:21:16;19.90;99.90
58517;DHT22;44308;50.810;0.284;2023-05-10T14:23:41;19.60;99.90
58517;DHT22;44308;50.810;0.284;2023-05-10T14:26:07;19.40;99.90
58517;DHT22;44308;50.810;0.284;2023-05-10T14:28:34;18.90;99.90
58517;DHT22;44308;50.810;0.284;2023-05-10T14:30:59;18.60;99.90
58517;DHT22;44308;50.810;0.284;2023-05-10T14:33:25;18.50;99.90
58517;DHT22;44308;50.810;0.284;2023-05-10T14:35:51;18.20;99.90
58517;DHT22;44308;50.810;0.284;2023-05-10T14:38:17;18.00;99.90
58517;DHT22;44308;50.810;0.284;2023-05-10T14:40:42;17.90;99.90
58517;DHT22;44308;50.810;0.284;2023-05-10T14:43:08;17.70;99.90
58517;DHT22;44308;50.810;0.284;2023-05-10T14:45:34;17.70;99.90
58517;DHT22;44308;50.810;0.284;2023-05-10T14:48:00;17.70;99.90
58517;DHT22;44308;50.810;0.284;2023-05-10T14:50:26;17.50;99.90
58517;DHT22;44308;50.810;0.284;2023-05-10T14:52:52;17.50;99.90
58517;DHT22;44308;50.810;0.284;2023-05-10T14:55:17;17.60;99.90
58517;DHT22;44308;50.810;0.284;2023-05-10T14:57:43;17.70;99.90
58517;DHT22;44308;50.810;0.284;2023-05-10T15:00:10;17.70;99.90
58517;DHT22;44308;50.810;0.284;2023-05-10T15:02:36;17.70;99.90
58517;DHT22;44308;50.810;0.284;2023-05-10T15:05:02;17.70;99.90
58517;DHT22;44308;50.810;0.284;2023-05-10T15:07:27;17.80;99.90
58517;DHT22;44308;50.810;0.284;2023-05-10T15:09:53;17.50;99.90
58517;DHT22;44308;50.810;0.284;2023-05-10T15:12:19;17.60;99.90
58517;DHT22;44308;50.810;0.284;2023-05-10T15:14:46;17.60;99.90
58517;DHT22;44308;50.810;0.284;2023-05-10T15:17:12;18.00;99.90
58517;DHT22;44308;50.810;0.284;2023-05-10T15:19:37;18.00;99.90
58517;DHT22;44308;50.810;0.284;2023-05-10T15:22:04;17.90;99.90
58517;DHT22;44308;50.810;0.284;2023-05-10T15:24:30;17.80;99.90
58517;DHT22;44308;50.810;0.284;2023-05-10T15:26:56;18.00;99.90
58517;DHT22;44308;50.810;0.284;2023-05-10T15:29:22;18.10;99.90
58517;DHT22;44308;50.810;0.284;2023-05-10T15:31:50;18.00;99.90
58517;DHT22;44308;50.810;0.284;2023-05-10T15:34:23;18.00;99.90
58517;DHT22;44308;50.810;0.284;2023-05-10T15:36:49;18.00;99.90
58517;DHT22;44308;50.810;0.284;2023-05-10T15:39:15;18.30;99.90
58517;DHT22;44308;50.810;0.284;2023-05-10T15:41:40;18.50;99.90
58517;DHT22;44308;50.810;0.284;2023-05-10T15:44:06;18.70;99.90
58517;DHT22;44308;50.810;0.284;2023-05-10T15:46:32;18.50;99.90
58517;DHT22;44308;50.810;0.284;2023-05-10T15:48:57;18.40;99.90
58517;DHT22;44308;50.810;0.284;2023-05-10T15:51:24;18.30;99.90
58517;DHT22;44308;50.810;0.284;2023-05-10T15:53:50;18.50;99.90
58517;DHT22;44308;50.810;0.284;2023-05-10T15:56:16;18.40;99.90
58517;DHT22;44308;50.810;0.284;2023-05-10T15:58:42;18.60;99.90
58517;DHT22;44308;50.810;0.284;2023-05-10T16:01:09;18.50;99.90
58517;DHT22;44308;50.810;0.284;2023-05-10T16:03:36;18.40;99.90